Time;durP1;ratioP1;P1;durP2;ratioP2;P2;SDS_P1;SDS_P2;PMS_P1;PMS_P2;Temp;Humidity;BMP_temperature;BMP_pressure;BME280_temperature;BME280_humidity;BME280_pressure;Samples;Min_cycle;Max_cycle;Signal;HPM_P1;HPM_P2
2022/06/24 00:00:33;;;;;;;;;6.00;6.00;;;;;24.44;53.22;100302.69;5090517;27;45520;-79
2022/06/24 00:02:59;;;;;;;;;4.75;4.75;;;;;24.25;53.20;100276.38;5092201;27;45499;-80
2022/06/24 00:05:28;;;;;;;;;6.25;5.50;;;;;24.36;53.56;100298.47;5092535;27;45422;-79
2022/06/24 00:07:54;;;;;;;;;3.50;3.50;;;;;24.29;53.93;100289.69;5092762;27;45393;-80
2022/06/24 00:10:22;;;;;;;;;5.50;5.50;;;;;24.06;53.33;100254.53;5072958;27;45663;-79
2022/06/24 00:12:49;;;;;;;;;10.00;9.00;;;;;24.02;54.32;100259.13;5082256;27;45643;-79
2022/06/24 00:15:15;;;;;;;;;6.00;5.75;;;;;24.00;54.20;100260.97;5092238;27;45701;-80
2022/06/24 00:17:40;;;;;;;;;4.75;4.75;;;;;24.08;54.39;100291.16;5082335;27;45618;-79
2022/06/24 00:20:08;;;;;;;;;4.75;4.50;;;;;23.96;53.94;100274.53;5090152;27;45751;-79
2022/06/24 00:22:44;;;;;;;;;4.00;4.00;;;;;23.29;54.23;100169.88;5099211;27;46630;-79
2022/06/24 00:25:14;;;;;;;;;5.00;5.00;;;;;23.63;53.86;100229.78;5081869;27;45894;-79
2022/06/24 00:27:41;;;;;;;;;5.75;5.50;;;;;23.80;54.73;100261.53;5089978;27;45601;-78
2022/06/24 00:30:08;;;;;;;;;4.25;4.25;;;;;23.83;55.04;100273.97;5082098;27;45413;-78
2022/06/24 00:32:34;;;;;;;;;4.75;4.50;;;;;23.99;54.60;100295.91;5082438;27;45577;-78
2022/06/24 00:35:04;;;;;;;;;5.50;5.00;;;;;23.96;54.80;100287.94;5086454;27;45904;-78
2022/06/24 00:37:32;;;;;;;;;4.00;4.00;;;;;23.92;54.48;100284.47;5083679;27;45625;-78
2022/06/24 00:40:22;;;;;;;;;3.00;3.00;;;;;23.97;54.86;100292.38;5080902;27;45394;-78
2022/06/24 00:42:48;;;;;;;;;4.00;3.50;;;;;23.87;55.14;100278.34;5086706;27;46054;-79
2022/06/24 00:45:38;;;;;;;;;4.25;4.25;;;;;23.93;54.90;100283.53;5090959;27;45723;-78
2022/06/24 00:48:14;;;;;;;;;3.75;3.75;;;;;23.93;54.87;100278.16;5092283;27;45736;-79
2022/06/24 00:50:43;;;;;;;;;4.00;4.00;;;;;23.89;55.11;100274.72;5092120;27;45761;-78
2022/06/24 00:53:09;;;;;;;;;5.00;5.00;;;;;23.79;55.60;100256.19;5091328;27;45871;-78
2022/06/24 00:55:37;;;;;;;;;3.25;3.25;;;;;23.95;55.41;100281.69;5090812;27;45445;-79
2022/06/24 00:58:04;;;;;;;;;3.75;3.75;;;;;23.74;55.37;100253.63;5071119;28;45860;-78
2022/06/24 01:00:32;;;;;;;;;4.75;4.50;;;;;23.90;55.41;100281.81;5060658;28;45835;-79
2022/06/24 01:03:03;;;;;;;;;3.50;3.25;;;;;23.98;55.54;100300.38;5070892;28;46871;-78
2022/06/24 01:05:30;;;;;;;;;3.50;3.25;;;;;23.92;55.41;100295.19;5070740;28;46288;-78
2022/06/24 01:07:58;;;;;;;;;5.00;5.00;;;;;23.80;55.53;100274.06;5071647;28;45422;-78
2022/06/24 01:10:23;;;;;;;;;4.25;4.25;;;;;23.86;55.40;100281.94;5051448;28;45342;-79
2022/06/24 01:12:49;;;;;;;;;5.50;4.50;;;;;23.64;54.91;100249.44;5067943;28;46418;-78
2022/06/24 01:15:14;;;;;;;;;4.00;4.00;;;;;23.89;55.42;100289.91;5070955;28;45883;-78
2022/06/24 01:17:40;;;;;;;;;4.50;3.50;;;;;23.84;55.51;100298.09;5070684;28;45970;-78
2022/06/24 01:20:09;;;;;;;;;4.75;4.00;;;;;23.67;55.71;100263.66;5070679;28;45525;-78
2022/06/24 01:22:35;;;;;;;;;5.25;5.00;;;;;23.73;55.18;100288.56;5070392;28;45499;-78
2022/06/24 01:25:00;;;;;;;;;4.00;4.00;;;;;23.69;55.83;100298.50;5069263;28;45473;-78
2022/06/24 01:27:26;;;;;;;;;3.75;3.75;;;;;23.75;56.33;100302.84;5061949;28;45414;-78
2022/06/24 01:29:52;;;;;;;;;4.25;4.25;;;;;23.63;58.26;100294.16;5070792;28;45547;-79
2022/06/24 01:32:17;;;;;;;;;5.50;5.00;;;;;23.06;64.21;100275.94;5070097;28;46160;-78
2022/06/24 01:34:43;;;;;;;;;6.25;6.25;;;;;22.41;65.73;100275.56;5071273;28;45575;-79
2022/06/24 01:37:08;;;;;;;;;7.00;5.75;;;;;22.10;66.72;100286.88;5070819;28;45591;-78
2022/06/24 01:39:34;;;;;;;;;4.50;4.25;;;;;21.89;67.91;100292.66;5070598;28;45540;-78
2022/06/24 01:41:59;;;;;;;;;6.00;5.00;;;;;21.69;68.10;100297.53;5070763;28;45624;-79
2022/06/24 01:44:26;;;;;;;;;5.75;5.25;;;;;21.88;67.08;100320.34;5070446;28;45529;-79
2022/06/24 01:46:52;;;;;;;;;6.00;6.00;;;;;21.92;68.84;100329.19;5069593;28;46012;-78
2022/06/24 01:49:18;;;;;;;;;6.25;6.00;;;;;21.88;68.69;100313.19;5069765;28;45732;-78
2022/06/24 01:51:47;;;;;;;;;7.00;6.75;;;;;21.81;68.64;100298.16;5070927;28;46330;-78
2022/06/24 01:54:12;;;;;;;;;8.00;7.00;;;;;21.65;68.75;100256.56;5070382;28;45635;-78
2022/06/24 01:56:38;;;;;;;;;6.25;5.25;;;;;21.98;67.74;100294.31;5069401;27;45517;-78
2022/06/24 01:59:03;;;;;;;;;6.50;6.25;;;;;22.04;66.04;100297.72;5069171;28;45493;-78
2022/06/24 02:01:29;;;;;;;;;5.00;5.00;;;;;22.18;66.19;100323.38;5069861;28;45316;-78
2022/06/24 02:03:55;;;;;;;;;5.50;5.00;;;;;22.17;66.82;100314.47;5070245;28;45361;-78
2022/06/24 02:06:20;;;;;;;;;4.00;3.75;;;;;22.12;65.97;100301.19;5069505;28;45718;-78
2022/06/24 02:08:46;;;;;;;;;3.25;3.25;;;;;22.09;65.57;100298.53;5064428;28;45382;-78
2022/06/24 02:14:03;;;;;;;;;7.50;7.00;;;;;22.11;74.26;100322.59;5065850;28;45694;-79
2022/06/24 02:16:28;;;;;;;;;6.50;6.25;;;;;21.71;75.72;100293.88;5070079;28;45420;-79
2022/06/24 02:18:55;;;;;;;;;7.25;6.75;;;;;21.65;88.68;100315.41;5070688;28;45525;-78
2022/06/24 02:21:22;;;;;;;;;7.50;7.00;;;;;21.27;100.00;100291.94;5069470;28;46401;-78
2022/06/24 02:23:48;;;;;;;;;8.00;6.75;;;;;21.35;100.00;100296.31;5070625;28;45931;-78
2022/06/24 02:26:13;;;;;;;;;8.00;8.00;;;;;21.43;100.00;100288.16;5069922;28;45450;-79
2022/06/24 02:28:39;;;;;;;;;6.25;6.25;;;;;21.34;100.00;100262.47;5069990;28;45371;-78
2022/06/24 02:31:04;;;;;;;;;7.25;7.25;;;;;22.14;100.00;100277.94;5069635;28;46417;-79
2022/06/24 02:33:30;;;;;;;;;7.00;7.00;;;;;22.22;100.00;100274.22;5069758;28;45444;-78
2022/06/24 02:35:56;;;;;;;;;8.00;8.00;;;;;21.28;100.00;100262.53;5069824;28;45462;-79
2022/06/24 02:38:21;;;;;;;;;9.00;7.25;;;;;20.91;100.00;100243.53;5069692;28;45769;-79
2022/06/24 02:40:47;;;;;;;;;6.75;6.00;;;;;20.94;98.95;100266.66;5070158;28;46509;-78
2022/06/24 02:43:28;;;;;;;;;8.00;8.00;;;;;20.87;94.11;100279.22;5069205;28;45728;-79
2022/06/24 02:45:57;;;;;;;;;7.00;7.00;;;;;20.75;91.31;100282.09;5069487;28;45418;-78
2022/06/24 02:48:23;;;;;;;;;7.25;7.25;;;;;20.63;90.90;100266.22;5051047;28;45425;-79
2022/06/24 02:51:02;;;;;;;;;8.00;8.00;;;;;20.79;90.27;100295.38;5069971;28;46451;-78
2022/06/24 02:53:29;;;;;;;;;7.00;7.00;;;;;20.58;90.01;100253.81;5069265;28;45589;-79
2022/06/24 02:55:57;;;;;;;;;7.00;6.75;;;;;20.60;90.16;100257.38;5070040;27;45604;-79
2022/06/24 02:58:23;;;;;;;;;5.75;5.75;;;;;20.77;90.20;100290.94;5067297;28;45510;-79
2022/06/24 03:00:49;;;;;;;;;5.75;5.50;;;;;20.78;89.96;100276.69;5069574;28;46420;-78
2022/06/24 03:03:17;;;;;;;;;6.50;6.50;;;;;20.69;90.44;100267.03;5068905;28;46945;-79
2022/06/24 03:05:43;;;;;;;;;6.50;6.50;;;;;20.53;89.99;100242.31;5069987;28;45489;-79
2022/06/24 03:08:12;;;;;;;;;6.00;6.00;;;;;20.82;90.23;100281.06;5067813;28;45554;-78
2022/06/24 03:10:38;;;;;;;;;6.25;6.25;;;;;20.75;89.67;100269.63;5049686;28;47151;-78
2022/06/24 03:13:03;;;;;;;;;8.00;6.00;;;;;20.63;89.82;100251.06;5054600;28;45929;-78
2022/06/24 03:15:30;;;;;;;;;7.00;6.25;;;;;20.72;89.68;100266.09;5069360;28;45442;-78
2022/06/24 03:17:56;;;;;;;;;7.00;6.75;;;;;20.61;89.55;100240.44;5069581;28;45527;-78
2022/06/24 03:20:21;;;;;;;;;6.00;6.00;;;;;20.65;89.11;100246.63;5069212;28;45289;-78
2022/06/24 03:22:47;;;;;;;;;8.00;8.00;;;;;20.57;88.50;100245.84;5069594;28;45748;-78
2022/06/24 03:25:12;;;;;;;;;5.50;5.50;;;;;20.42;88.62;100224.66;5050381;28;45665;-78
2022/06/24 03:27:41;;;;;;;;;7.00;7.00;;;;;20.61;88.54;100275.16;5068992;28;45461;-79
2022/06/24 03:30:08;;;;;;;;;7.00;7.00;;;;;20.48;88.48;100251.28;5069397;28;45438;-78
2022/06/24 03:32:34;;;;;;;;;8.75;8.50;;;;;20.39;87.91;100244.25;5065086;28;45988;-79
2022/06/24 03:34:59;;;;;;;;;6.00;6.00;;;;;20.54;87.95;100272.56;5049055;28;45386;-79
2022/06/24 03:37:25;;;;;;;;;6.50;6.50;;;;;20.48;87.87;100257.53;5055339;28;45550;-78
2022/06/24 03:39:50;;;;;;;;;7.50;7.50;;;;;20.52;87.26;100264.59;5051307;28;45926;-78
2022/06/24 03:42:16;;;;;;;;;7.25;7.00;;;;;20.44;87.39;100253.09;5068620;28;45614;-78
2022/06/24 03:44:41;;;;;;;;;6.50;6.50;;;;;20.31;86.90;100230.16;5046502;28;45637;-78
2022/06/24 03:47:06;;;;;;;;;6.00;6.00;;;;;20.32;86.22;100226.56;5068734;28;45581;-78
2022/06/24 03:49:32;;;;;;;;;6.00;6.00;;;;;20.38;85.07;100245.16;5068927;28;46062;-79
2022/06/24 03:51:57;;;;;;;;;7.75;7.00;;;;;20.27;84.87;100225.75;5050498;28;45825;-78
2022/06/24 03:54:22;;;;;;;;;6.50;6.50;;;;;20.28;84.08;100228.41;5068651;28;45929;-79
2022/06/24 03:56:48;;;;;;;;;5.25;5.25;;;;;20.26;84.02;100219.53;5069583;27;45536;-78
2022/06/24 03:59:13;;;;;;;;;6.00;6.00;;;;;20.24;83.50;100210.66;5068419;28;46650;-78
2022/06/24 04:01:39;;;;;;;;;6.00;5.50;;;;;20.32;83.22;100218.56;5066908;28;45375;-78
2022/06/24 04:04:04;;;;;;;;;7.25;6.50;;;;;20.53;83.08;100244.97;5067686;28;45808;-79
2022/06/24 04:06:30;;;;;;;;;5.75;5.75;;;;;20.24;83.12;100201.75;5050292;28;45544;-79
2022/06/24 04:08:56;;;;;;;;;4.00;4.00;;;;;20.44;82.64;100229.06;5060891;28;45552;-79
2022/06/24 04:11:22;;;;;;;;;5.50;5.25;;;;;20.35;82.96;100210.53;5057628;28;45797;-78
2022/06/24 04:13:48;;;;;;;;;6.00;6.00;;;;;20.48;82.46;100248.63;5068942;28;45513;-79
2022/06/24 04:16:14;;;;;;;;;4.75;4.50;;;;;20.46;81.97;100243.28;5061772;28;45840;-78
2022/06/24 04:18:39;;;;;;;;;5.25;5.25;;;;;20.41;81.87;100239.81;5061775;28;45527;-79
2022/06/24 04:21:12;;;;;;;;;6.50;6.00;;;;;20.59;81.75;100265.38;5068960;28;45878;-79
2022/06/24 04:23:39;;;;;;;;;6.00;6.00;;;;;20.54;81.50;100252.13;5063323;28;45387;-79
2022/06/24 04:26:05;;;;;;;;;8.00;8.00;;;;;20.41;81.08;100222.91;5054625;28;45572;-79
2022/06/24 04:28:30;;;;;;;;;7.00;7.00;;;;;20.40;80.50;100222.03;5068069;28;46287;-79
2022/06/24 04:30:55;;;;;;;;;5.25;4.50;;;;;20.54;80.10;100241.44;5069476;28;45635;-79
2022/06/24 04:33:21;;;;;;;;;4.75;4.75;;;;;20.49;80.24;100237.94;5044380;28;45625;-79
2022/06/24 04:35:47;;;;;;;;;7.00;7.00;;;;;20.69;79.89;100253.69;5043847;28;45709;-79
2022/06/24 04:38:13;;;;;;;;;6.25;6.00;;;;;20.77;78.91;100266.91;5071123;28;45543;-78
2022/06/24 04:40:38;;;;;;;;;7.00;6.50;;;;;20.50;79.62;100218.34;5051467;28;45411;-79
2022/06/24 04:43:03;;;;;;;;;8.00;7.50;;;;;20.67;79.32;100235.91;5086194;28;45093;-80
2022/06/24 04:45:29;;;;;;;;;6.00;6.00;;;;;20.70;79.35;100252.78;5088167;28;45122;-81
2022/06/24 04:47:54;;;;;;;;;7.00;7.00;;;;;20.82;78.88;100268.59;5084618;28;45201;-80
2022/06/24 04:50:20;;;;;;;;;8.00;7.50;;;;;20.74;78.27;100245.56;5089282;28;45131;-80
2022/06/24 04:52:45;;;;;;;;;5.25;5.25;;;;;20.70;77.79;100255.44;5091429;28;45132;-80
2022/06/24 04:55:10;;;;;;;;;7.00;7.00;;;;;20.76;78.04;100271.38;5082080;28;45319;-77
2022/06/24 04:57:36;;;;;;;;;8.00;8.00;;;;;20.72;78.21;100258.97;5068727;27;45599;-80
2022/06/24 05:00:03;;;;;;;;;8.00;7.25;;;;;20.77;78.07;100261.56;5052701;28;45419;-79
2022/06/24 05:02:29;;;;;;;;;8.00;7.25;;;;;20.74;77.82;100259.84;5069738;28;45862;-79
2022/06/24 05:04:54;;;;;;;;;6.75;6.00;;;;;20.70;77.93;100251.91;5069438;28;45706;-80
2022/06/24 05:07:19;;;;;;;;;8.50;7.50;;;;;20.68;77.38;100245.69;5069085;28;45784;-80
2022/06/24 05:09:45;;;;;;;;;7.25;7.25;;;;;20.76;77.56;100265.16;5067734;28;45505;-80
2022/06/24 05:12:11;;;;;;;;;7.00;6.00;;;;;20.61;76.93;100240.44;5070569;28;45155;-79
2022/06/24 05:14:36;;;;;;;;;7.00;6.25;;;;;20.77;77.01;100266.91;5081085;28;45235;-80
2022/06/24 05:17:01;;;;;;;;;8.00;7.00;;;;;20.74;76.43;100256.25;5078288;28;50225;-80
2022/06/24 05:19:27;;;;;;;;;6.75;6.50;;;;;20.59;76.42;100234.25;5077062;28;45084;-80
2022/06/24 05:21:52;;;;;;;;;8.00;8.00;;;;;20.56;75.81;100239.63;5070021;28;45534;-79
2022/06/24 05:24:22;;;;;;;;;6.50;6.50;;;;;20.63;76.14;100264.44;5082452;28;45810;-79
2022/06/24 05:26:47;;;;;;;;;6.00;6.00;;;;;20.70;76.36;100274.13;5078796;28;46217;-79
2022/06/24 05:29:13;;;;;;;;;5.50;5.25;;;;;20.70;76.82;100267.91;5079444;28;45718;-79
2022/06/24 05:31:38;;;;;;;;;7.00;7.00;;;;;20.66;76.57;100247.50;5073983;28;45427;-79
2022/06/24 05:34:06;;;;;;;;;9.25;9.00;;;;;20.86;76.36;100264.97;5080517;28;45410;-80
2022/06/24 05:36:32;;;;;;;;;9.00;8.00;;;;;20.83;75.89;100235.63;5061206;28;45856;-79
2022/06/24 05:39:00;;;;;;;;;7.75;7.75;;;;;21.01;74.91;100249.63;5064329;28;44994;-79
2022/06/24 05:41:25;;;;;;;;;6.50;5.75;;;;;21.06;74.46;100259.31;5069369;28;45542;-79
2022/06/24 05:43:50;;;;;;;;;6.75;6.50;;;;;21.06;74.32;100271.81;5074098;28;45405;-79
2022/06/24 05:46:16;;;;;;;;;7.00;7.00;;;;;20.76;74.65;100231.31;5069943;28;45557;-79
2022/06/24 05:48:41;;;;;;;;;8.00;8.00;;;;;21.08;75.12;100280.66;5069218;28;47934;-79
2022/06/24 05:51:17;;;;;;;;;6.33;6.33;;;;;20.79;74.37;100220.59;5069647;28;46953;-79
2022/06/24 05:56:30;;;;;;;;;9.25;9.00;;;;;21.16;74.47;100277.88;5067277;27;45838;-79
2022/06/24 05:58:57;;;;;;;;;6.50;6.00;;;;;21.26;74.17;100276.81;5078596;28;45349;-79
2022/06/24 06:01:23;;;;;;;;;8.25;7.25;;;;;21.23;73.90;100263.50;5068562;28;45837;-79
2022/06/24 06:03:48;;;;;;;;;3.50;3.50;;;;;21.07;73.39;100226.34;5069911;28;45545;-79
2022/06/24 06:06:14;;;;;;;;;6.25;6.25;;;;;21.33;73.15;100278.53;5068954;28;45430;-79
2022/06/24 06:08:39;;;;;;;;;6.00;6.00;;;;;21.38;72.83;100288.25;5076177;28;45429;-79
2022/06/24 06:11:17;;;;;;;;;6.50;6.25;;;;;21.40;72.68;100298.91;5080042;28;45500;-79
2022/06/24 06:13:44;;;;;;;;;6.25;6.00;;;;;21.05;72.35;100238.88;5089392;28;45620;-79
2022/06/24 06:16:10;;;;;;;;;5.25;5.25;;;;;21.18;72.75;100266.28;5081709;28;45399;-79
2022/06/24 06:18:36;;;;;;;;;7.00;7.00;;;;;21.26;72.72;100291.06;5070326;28;45732;-79
2022/06/24 06:21:03;;;;;;;;;5.25;5.25;;;;;21.15;73.10;100262.78;5071814;28;45449;-80
2022/06/24 06:23:29;;;;;;;;;5.75;5.25;;;;;21.18;72.33;100265.38;5074074;28;45408;-79
2022/06/24 06:25:55;;;;;;;;;6.00;6.00;;;;;21.11;72.44;100253.91;5057565;28;45940;-79
2022/06/24 06:28:21;;;;;;;;;6.00;5.00;;;;;21.26;72.21;100279.50;5081751;28;45660;-78
2022/06/24 06:30:46;;;;;;;;;6.00;6.00;;;;;21.21;72.51;100273.34;5071458;28;45478;-80
2022/06/24 06:33:11;;;;;;;;;6.25;6.25;;;;;21.25;72.62;100283.97;5068746;28;45938;-80
2022/06/24 06:35:37;;;;;;;;;8.00;7.75;;;;;21.24;73.59;100271.50;5070188;28;45722;-80
2022/06/24 06:38:02;;;;;;;;;6.75;6.50;;;;;21.50;72.49;100304.97;5051663;28;45823;-80
2022/06/24 06:40:27;;;;;;;;;6.25;6.25;;;;;21.54;73.05;100296.88;5069578;28;45426;-79
2022/06/24 06:42:55;;;;;;;;;6.50;6.50;;;;;21.48;72.59;100278.28;5070080;28;45432;-80
2022/06/24 06:45:21;;;;;;;;;6.00;5.50;;;;;21.57;72.13;100286.09;5068757;28;45469;-80
2022/06/24 06:47:46;;;;;;;;;4.50;4.25;;;;;21.73;70.96;100296.56;5068433;28;45425;-80
2022/06/24 06:50:11;;;;;;;;;6.00;6.00;;;;;21.55;70.89;100268.34;5068998;28;45665;-79
2022/06/24 06:52:36;;;;;;;;;5.50;5.25;;;;;21.77;70.82;100304.50;5062618;28;46453;-80
2022/06/24 06:55:02;;;;;;;;;5.00;5.00;;;;;21.74;70.74;100295.63;5064960;28;50002;-80
2022/06/24 06:57:28;;;;;;;;;3.00;2.50;;;;;21.66;70.24;100289.53;5070562;27;45760;-80
2022/06/24 06:59:53;;;;;;;;;4.75;4.75;;;;;21.70;69.89;100296.59;5078246;28;45151;-80
2022/06/24 07:02:18;;;;;;;;;5.75;5.50;;;;;21.85;70.37;100317.72;5087313;28;45194;-80
2022/06/24 07:04:44;;;;;;;;;3.75;3.75;;;;;21.89;69.44;100311.41;5077923;28;45605;-80
2022/06/24 07:07:09;;;;;;;;;4.00;4.00;;;;;21.73;69.18;100293.88;5081265;28;45092;-80
2022/06/24 07:09:34;;;;;;;;;3.75;3.75;;;;;21.74;69.55;100287.63;5074696;28;45032;-80
2022/06/24 07:11:59;;;;;;;;;5.00;4.25;;;;;21.78;69.16;100292.00;5075145;28;45161;-80
2022/06/24 07:14:25;;;;;;;;;5.00;5.00;;;;;21.71;69.34;100279.63;5065070;28;46078;-80
2022/06/24 07:16:50;;;;;;;;;4.00;3.75;;;;;21.62;69.25;100275.31;5069062;28;45407;-79
2022/06/24 07:19:16;;;;;;;;;5.00;4.00;;;;;21.64;69.42;100285.09;5067723;28;46050;-79
2022/06/24 07:21:41;;;;;;;;;5.00;4.75;;;;;21.65;69.89;100283.31;5051613;28;45797;-79
2022/06/24 07:24:06;;;;;;;;;4.50;4.50;;;;;21.66;70.39;100273.50;5068533;28;45713;-79
2022/06/24 07:26:32;;;;;;;;;3.00;3.00;;;;;21.88;70.68;100301.63;5068915;28;45422;-79
2022/06/24 07:28:57;;;;;;;;;5.75;5.00;;;;;21.75;70.84;100263.50;5069910;28;45404;-79
2022/06/24 07:31:22;;;;;;;;;6.00;5.75;;;;;21.88;70.37;100280.22;5065898;28;45271;-78
2022/06/24 07:33:48;;;;;;;;;6.50;5.50;;;;;21.82;69.28;100272.28;5049148;28;46192;-79
2022/06/24 07:36:13;;;;;;;;;5.50;5.50;;;;;21.89;69.76;100279.28;5049006;28;45413;-79
2022/06/24 07:38:39;;;;;;;;;7.00;7.00;;;;;21.95;69.49;100271.13;5067367;28;45542;-79
2022/06/24 07:41:05;;;;;;;;;5.50;5.50;;;;;22.09;69.75;100297.63;5070108;28;45426;-88
2022/06/24 07:43:30;;;;;;;;;5.25;5.00;;;;;21.83;70.03;100244.63;5053729;28;47425;-84
2022/06/24 07:45:55;;;;;;;;;5.00;4.50;;;;;21.94;70.23;100247.97;5066242;28;45696;-85
2022/06/24 07:48:21;;;;;;;;;5.00;5.00;;;;;22.17;69.28;100282.34;5073622;28;45732;-89
2022/06/24 07:50:46;;;;;;;;;7.25;6.25;;;;;22.06;69.03;100261.09;5084619;28;45576;-88
2022/06/24 07:53:12;;;;;;;;;6.25;6.25;;;;;22.34;69.58;100288.22;5069613;28;47381;-83
2022/06/24 07:58:22;;;;;;;;;7.00;7.00;;;;;22.38;68.80;100287.25;5091319;28;45353;-86
2022/06/24 08:00:48;;;;;;;;;7.75;7.25;;;;;22.22;68.23;100255.50;5091483;28;45142;-83
2022/06/24 08:03:14;;;;;;;;;10.25;7.25;;;;;22.46;68.47;100289.75;5079981;28;47965;-83
2022/06/24 08:05:39;;;;;;;;;7.25;7.25;;;;;22.22;69.10;100245.66;5043261;28;45442;-88
2022/06/24 08:08:05;;;;;;;;;6.50;6.00;;;;;22.50;68.38;100280.75;5070024;28;45353;-82
2022/06/24 08:10:30;;;;;;;;;8.50;7.75;;;;;22.50;67.89;100279.84;5052016;28;45412;-83
2022/06/24 08:12:56;;;;;;;;;8.25;8.00;;;;;22.45;67.81;100263.00;5066387;28;45997;-89
2022/06/24 08:15:21;;;;;;;;;9.50;9.50;;;;;22.56;68.20;100269.00;5054262;28;46084;-84
2022/06/24 08:17:48;;;;;;;;;8.75;7.25;;;;;22.72;66.89;100269.56;5072360;28;45439;-86
2022/06/24 08:20:14;;;;;;;;;7.00;6.00;;;;;22.93;66.56;100285.16;5071273;28;45320;-81
2022/06/24 08:22:39;;;;;;;;;6.50;6.25;;;;;23.09;66.64;100283.88;5071002;28;45540;-81
2022/06/24 08:25:05;;;;;;;;;6.50;6.50;;;;;22.98;66.28;100243.06;5071387;28;46111;-81
2022/06/24 08:27:30;;;;;;;;;6.00;5.25;;;;;23.04;65.67;100236.66;5071784;28;45612;-82
2022/06/24 08:29:56;;;;;;;;;5.75;5.75;;;;;23.09;65.38;100246.34;5073063;28;45467;-81
2022/06/24 08:32:21;;;;;;;;;6.50;6.50;;;;;23.15;64.95;100254.25;5063876;28;45459;-83
2022/06/24 08:34:46;;;;;;;;;8.00;6.50;;;;;23.42;64.58;100282.16;5075643;28;45498;-83
2022/06/24 08:37:12;;;;;;;;;4.00;4.00;;;;;23.05;63.79;100222.34;5060467;28;45603;-82
2022/06/24 08:39:37;;;;;;;;;5.25;5.25;;;;;23.28;63.80;100267.34;5054047;28;45435;-83
2022/06/24 08:42:04;;;;;;;;;3.75;3.75;;;;;23.11;63.03;100244.53;5071781;28;46171;-81
2022/06/24 08:44:29;;;;;;;;;4.00;3.00;;;;;23.10;62.24;100249.91;5052841;28;45492;-80
2022/06/24 08:46:55;;;;;;;;;3.00;3.00;;;;;23.23;62.03;100285.34;5050733;28;45592;-83
2022/06/24 08:49:21;;;;;;;;;4.00;4.00;;;;;23.26;61.80;100275.44;5071984;28;45491;-82
2022/06/24 08:51:48;;;;;;;;;3.50;3.50;;;;;22.95;62.32;100207.41;5069090;28;45541;-81
2022/06/24 08:54:18;;;;;;;;;3.00;3.00;;;;;23.45;62.67;100265.13;5060339;28;45849;-88
2022/06/24 08:56:44;;;;;;;;;4.00;4.00;;;;;22.76;61.15;100138.19;5071288;27;45677;-85
2022/06/24 08:59:11;;;;;;;;;3.75;2.75;;;;;22.82;60.61;100150.53;5090567;27;45538;-87
2022/06/24 09:01:41;;;;;;;;;4.50;4.25;;;;;23.38;61.57;100256.34;5106068;27;47458;-87
2022/06/24 09:04:08;;;;;;;;;4.00;4.00;;;;;23.01;61.45;100197.44;5090776;27;45495;-84
2022/06/24 09:06:39;;;;;;;;;4.00;4.00;;;;;22.90;61.69;100189.63;5090339;27;45483;-86
2022/06/24 09:09:04;;;;;;;;;2.00;2.00;;;;;22.99;60.83;100218.00;5083629;27;45881;-83
2022/06/24 09:11:41;;;;;;;;;2.00;2.00;;;;;22.71;60.64;100198.13;5089603;27;46286;-86
2022/06/24 09:14:11;;;;;;;;;3.00;3.00;;;;;22.66;60.57;100209.84;5092739;27;46066;-85
2022/06/24 09:16:38;;;;;;;;;1.00;1.00;;;;;22.75;60.36;100237.31;5094928;27;45462;-84
2022/06/24 09:19:05;;;;;;;;;2.25;1.25;;;;;22.78;60.63;100240.81;5098813;27;45515;-84
2022/06/24 09:21:36;;;;;;;;;2.00;2.00;;;;;22.69;60.24;100205.31;5091591;27;45563;-84
2022/06/24 09:24:05;;;;;;;;;1.25;1.25;;;;;22.84;60.37;100205.84;5107101;27;45559;-84
2022/06/24 09:26:37;;;;;;;;;1.75;1.75;;;;;23.16;60.24;100239.06;5090101;27;45351;-84
2022/06/24 09:29:25;;;;;;;;;1.50;1.50;;;;;23.04;58.83;100208.06;5092262;27;45345;-84
2022/06/24 09:31:50;;;;;;;;;2.00;2.00;;;;;22.75;58.64;100159.63;5093552;27;45437;-84
2022/06/24 09:34:17;;;;;;;;;1.00;1.00;;;;;22.82;58.69;100180.00;5097210;27;45546;-84
2022/06/24 09:36:46;;;;;;;;;2.00;1.25;;;;;23.05;58.24;100214.28;5090035;27;45586;-84
2022/06/24 09:39:16;;;;;;;;;1.00;1.00;;;;;23.03;57.87;100208.09;5096933;27;45266;-84
2022/06/24 09:41:48;;;;;;;;;1.00;1.00;;;;;22.86;57.95;100166.50;5091658;27;48589;-84
2022/06/24 09:44:14;;;;;;;;;0.00;0.00;;;;;23.14;57.24;100201.53;5093314;27;45843;-84
2022/06/24 09:46:40;;;;;;;;;1.00;1.00;;;;;23.23;57.19;100189.69;5100533;27;45503;-84
2022/06/24 09:49:10;;;;;;;;;1.25;1.00;;;;;23.27;56.73;100185.16;5103188;27;45581;-84
2022/06/24 09:51:35;;;;;;;;;2.25;2.00;;;;;23.39;56.89;100185.69;5093718;27;46859;-84
2022/06/24 09:54:01;;;;;;;;;3.00;2.50;;;;;23.59;57.13;100201.22;5100993;27;45536;-84
2022/06/24 09:56:28;;;;;;;;;1.50;1.50;;;;;23.56;56.53;100163.78;5085488;27;45454;-87
2022/06/24 10:01:41;;;;;;;;;1.25;1.25;;;;;23.83;55.89;100188.09;5069654;28;45595;-86
2022/06/24 10:04:12;;;;;;;;;3.00;2.75;;;;;23.59;55.58;100149.38;5052760;28;46007;-87
2022/06/24 10:06:48;;;;;;;;;2.50;1.25;;;;;23.85;55.50;100192.50;5052474;28;45753;-85
2022/06/24 10:09:17;;;;;;;;;1.00;1.00;;;;;23.87;55.46;100179.91;5060603;28;45717;-85
2022/06/24 10:11:44;;;;;;;;;2.00;1.00;;;;;23.97;55.31;100169.78;5069318;28;47435;-85
2022/06/24 10:14:11;;;;;;;;;1.25;1.25;;;;;24.03;55.62;100157.97;5052036;28;45536;-87
2022/06/24 10:16:37;;;;;;;;;2.00;2.00;;;;;24.09;55.72;100134.53;5069728;28;45520;-85
2022/06/24 10:19:04;;;;;;;;;1.50;1.00;;;;;24.61;54.80;100200.06;5069597;28;45407;-86
2022/06/24 10:21:31;;;;;;;;;2.00;2.00;;;;;24.79;55.24;100205.78;5070506;28;46415;-86
2022/06/24 10:23:57;;;;;;;;;1.00;1.00;;;;;24.84;54.29;100176.94;5070497;28;45478;-86
2022/06/24 10:26:27;;;;;;;;;2.00;2.00;;;;;25.02;53.49;100222.03;5070314;28;45755;-85
2022/06/24 10:29:03;;;;;;;;;2.75;2.75;;;;;24.84;53.34;100210.09;5071157;28;45497;-87
2022/06/24 10:31:37;;;;;;;;;3.00;2.25;;;;;24.75;53.40;100205.00;5068342;28;45534;-87
2022/06/24 10:34:03;;;;;;;;;1.00;1.00;;;;;24.41;52.91;100152.34;5052066;28;46000;-85
2022/06/24 10:36:32;;;;;;;;;3.00;2.25;;;;;24.62;52.64;100187.50;5070787;28;45664;-86
2022/06/24 10:39:11;;;;;;;;;1.75;1.75;;;;;24.69;52.83;100189.97;5070402;28;45623;-85
2022/06/24 10:41:38;;;;;;;;;1.50;1.50;;;;;24.62;52.30;100174.94;5070395;28;46175;-85
2022/06/24 10:44:33;;;;;;;;;2.00;2.00;;;;;24.79;52.87;100198.59;5069325;28;45796;-86
2022/06/24 10:47:04;;;;;;;;;2.75;2.00;;;;;24.89;52.39;100204.56;5070017;28;45390;-85
2022/06/24 10:49:54;;;;;;;;;1.00;1.00;;;;;24.81;52.49;100207.47;5071635;28;45335;-86
2022/06/24 10:52:45;;;;;;;;;2.00;2.00;;;;;24.53;53.20;100182.41;5051332;28;47204;-85
2022/06/24 10:57:42;;;;;;;;;2.00;2.00;;;;;24.44;53.72;100202.41;5070235;28;45383;-86
2022/06/24 11:00:14;;;;;;;;;3.67;3.00;;;;;24.38;54.28;100202.59;5069818;28;45446;-87
2022/06/24 11:02:40;;;;;;;;;2.00;1.50;;;;;24.11;54.38;100151.44;5069893;28;48359;-90
2022/06/24 11:05:11;;;;;;;;;3.00;3.00;;;;;24.48;54.05;100198.69;5070940;28;45220;-88
2022/06/24 11:07:44;;;;;;;;;2.00;2.00;;;;;24.27;53.74;100150.97;5076360;28;44946;-92
2022/06/24 11:10:19;;;;;;;;;3.00;2.75;;;;;24.51;53.54;100198.59;5053063;28;45426;-88
2022/06/24 11:12:53;;;;;;;;;2.00;2.00;;;;;23.72;54.21;100089.13;5053290;28;46539;-91
2022/06/24 11:15:31;;;;;;;;;3.00;2.00;;;;;23.86;53.71;100107.50;5060925;28;45455;-90
2022/06/24 11:17:56;;;;;;;;;2.00;2.00;;;;;24.04;54.31;100152.56;5072419;28;45404;-92
2022/06/24 11:20:22;;;;;;;;;2.00;2.00;;;;;24.39;54.25;100197.19;5072320;28;45424;-90
2022/06/24 11:22:48;;;;;;;;;3.25;3.00;;;;;24.49;54.50;100205.84;5082965;28;45804;-91
2022/06/24 11:25:15;;;;;;;;;1.00;1.00;;;;;24.38;54.64;100160.50;5070825;28;45333;-92
2022/06/24 11:27:41;;;;;;;;;2.00;2.00;;;;;24.66;54.24;100187.34;5079120;28;45665;-95
2022/06/24 11:30:08;;;;;;;;;6.00;5.50;;;;;24.65;54.65;100164.09;5076392;28;45897;-92
2022/06/24 11:33:03;;;;;;;;;1.00;1.00;;;;;24.98;53.84;100196.19;5067780;28;47382;-91
2022/06/24 11:35:29;;;;;;;;;1.00;1.00;;;;;24.90;52.80;100174.03;5084722;28;45211;-93
2022/06/24 11:37:58;;;;;;;;;3.00;3.00;;;;;24.88;51.87;100166.03;5090414;28;45376;-90